<?xml version="1.0" encoding="UTF-8" standalone="no" ?>
<gpx xmlns="http://www.topografix.com/GPX/1/1" xmlns:xsi="http://www.w3.org/2001/XMLSchema-instance" xsi:schemaLocation="http://www.topografix.com/GPX/1/1 http://www.topografix.com/GPX/1/1/gpx.xsd" version="1.1" creator="VisuGPX - https://www.visugpx.com">
  <metadata>
    <name>Taurignan*Vieux Cap d'Aoubi Gajan 1h22 3,3 km/h</name>
  </metadata>
  <trk>
    <name><![CDATA[Taurignan*Vieux Cap d'Aoubi Gajan 1h22 3,3 km/h]]></name>
    <trkseg>
      <trkpt lat="43.02809" lon="1.11374">
        <ele>414</ele>
        <time>2022-03-08T14:22:58+01:00</time>
      </trkpt>
      <trkpt lat="43.02821" lon="1.11393">
        <ele>422</ele>
        <time>2022-03-08T14:23:16+01:00</time>
      </trkpt>
      <trkpt lat="43.02833" lon="1.11411">
        <ele>422</ele>
        <time>2022-03-08T14:24:00+01:00</time>
      </trkpt>
      <trkpt lat="43.02842" lon="1.11433">
        <ele>421</ele>
        <time>2022-03-08T14:24:17+01:00</time>
      </trkpt>
      <trkpt lat="43.02852" lon="1.11456">
        <ele>424</ele>
        <time>2022-03-08T14:24:36+01:00</time>
      </trkpt>
      <trkpt lat="43.02869" lon="1.11465">
        <ele>424</ele>
        <time>2022-03-08T14:24:53+01:00</time>
      </trkpt>
      <trkpt lat="43.02885" lon="1.11453">
        <ele>423</ele>
        <time>2022-03-08T14:25:11+01:00</time>
      </trkpt>
      <trkpt lat="43.02902" lon="1.1144">
        <ele>425</ele>
        <time>2022-03-08T14:25:28+01:00</time>
      </trkpt>
      <trkpt lat="43.02918" lon="1.1143">
        <ele>421</ele>
        <time>2022-03-08T14:25:44+01:00</time>
      </trkpt>
      <trkpt lat="43.02937" lon="1.11424">
        <ele>420</ele>
        <time>2022-03-08T14:26:01+01:00</time>
      </trkpt>
      <trkpt lat="43.02955" lon="1.11426">
        <ele>421</ele>
        <time>2022-03-08T14:26:20+01:00</time>
      </trkpt>
      <trkpt lat="43.02973" lon="1.11433">
        <ele>421</ele>
        <time>2022-03-08T14:26:39+01:00</time>
      </trkpt>
      <trkpt lat="43.02991" lon="1.1144">
        <ele>420</ele>
        <time>2022-03-08T14:26:56+01:00</time>
      </trkpt>
      <trkpt lat="43.03006" lon="1.11454">
        <ele>415</ele>
        <time>2022-03-08T14:27:13+01:00</time>
      </trkpt>
      <trkpt lat="43.03024" lon="1.11465">
        <ele>418</ele>
        <time>2022-03-08T14:27:31+01:00</time>
      </trkpt>
      <trkpt lat="43.03043" lon="1.1147">
        <ele>418</ele>
        <time>2022-03-08T14:27:48+01:00</time>
      </trkpt>
      <trkpt lat="43.03061" lon="1.11476">
        <ele>421</ele>
        <time>2022-03-08T14:28:07+01:00</time>
      </trkpt>
      <trkpt lat="43.03079" lon="1.11482">
        <ele>423</ele>
        <time>2022-03-08T14:28:27+01:00</time>
      </trkpt>
      <trkpt lat="43.03096" lon="1.11487">
        <ele>421</ele>
        <time>2022-03-08T14:28:54+01:00</time>
      </trkpt>
      <trkpt lat="43.03114" lon="1.11478">
        <ele>421</ele>
        <time>2022-03-08T14:29:19+01:00</time>
      </trkpt>
      <trkpt lat="43.03127" lon="1.11459">
        <ele>425</ele>
        <time>2022-03-08T14:29:43+01:00</time>
      </trkpt>
      <trkpt lat="43.03141" lon="1.11443">
        <ele>429</ele>
        <time>2022-03-08T14:30:06+01:00</time>
      </trkpt>
      <trkpt lat="43.03154" lon="1.11424">
        <ele>433</ele>
        <time>2022-03-08T14:30:26+01:00</time>
      </trkpt>
      <trkpt lat="43.0317" lon="1.11411">
        <ele>432</ele>
        <time>2022-03-08T14:30:56+01:00</time>
      </trkpt>
      <trkpt lat="43.03186" lon="1.11399">
        <ele>440</ele>
        <time>2022-03-08T14:31:14+01:00</time>
      </trkpt>
      <trkpt lat="43.03203" lon="1.11386">
        <ele>442</ele>
        <time>2022-03-08T14:31:35+01:00</time>
      </trkpt>
      <trkpt lat="43.03218" lon="1.1137">
        <ele>441</ele>
        <time>2022-03-08T14:31:56+01:00</time>
      </trkpt>
      <trkpt lat="43.03228" lon="1.11349">
        <ele>443</ele>
        <time>2022-03-08T14:32:17+01:00</time>
      </trkpt>
      <trkpt lat="43.03243" lon="1.11334">
        <ele>448</ele>
        <time>2022-03-08T14:32:37+01:00</time>
      </trkpt>
      <trkpt lat="43.03258" lon="1.1132">
        <ele>449</ele>
        <time>2022-03-08T14:32:55+01:00</time>
      </trkpt>
      <trkpt lat="43.03273" lon="1.11305">
        <ele>448</ele>
        <time>2022-03-08T14:33:13+01:00</time>
      </trkpt>
      <trkpt lat="43.03288" lon="1.11292">
        <ele>448</ele>
        <time>2022-03-08T14:33:38+01:00</time>
      </trkpt>
      <trkpt lat="43.03297" lon="1.1127">
        <ele>445</ele>
        <time>2022-03-08T14:33:58+01:00</time>
      </trkpt>
      <trkpt lat="43.03306" lon="1.11248">
        <ele>444</ele>
        <time>2022-03-08T14:34:18+01:00</time>
      </trkpt>
      <trkpt lat="43.03316" lon="1.11227">
        <ele>445</ele>
        <time>2022-03-08T14:34:38+01:00</time>
      </trkpt>
      <trkpt lat="43.03331" lon="1.11211">
        <ele>447</ele>
        <time>2022-03-08T14:34:58+01:00</time>
      </trkpt>
      <trkpt lat="43.03349" lon="1.11206">
        <ele>455</ele>
        <time>2022-03-08T14:35:19+01:00</time>
      </trkpt>
      <trkpt lat="43.03368" lon="1.11209">
        <ele>453</ele>
        <time>2022-03-08T14:35:41+01:00</time>
      </trkpt>
      <trkpt lat="43.03386" lon="1.11214">
        <ele>454</ele>
        <time>2022-03-08T14:36:01+01:00</time>
      </trkpt>
      <trkpt lat="43.03405" lon="1.11216">
        <ele>458</ele>
        <time>2022-03-08T14:36:19+01:00</time>
      </trkpt>
      <trkpt lat="43.03392" lon="1.11234">
        <ele>492</ele>
        <time>2022-03-08T14:36:45+01:00</time>
      </trkpt>
      <trkpt lat="43.03375" lon="1.11238">
        <ele>488</ele>
        <time>2022-03-08T14:37:02+01:00</time>
      </trkpt>
      <trkpt lat="43.03356" lon="1.11242">
        <ele>460</ele>
        <time>2022-03-08T14:37:21+01:00</time>
      </trkpt>
      <trkpt lat="43.03374" lon="1.11249">
        <ele>496</ele>
        <time>2022-03-08T14:37:42+01:00</time>
      </trkpt>
      <trkpt lat="43.03393" lon="1.11252">
        <ele>499</ele>
        <time>2022-03-08T14:38:04+01:00</time>
      </trkpt>
      <trkpt lat="43.03409" lon="1.11263">
        <ele>499</ele>
        <time>2022-03-08T14:38:25+01:00</time>
      </trkpt>
      <trkpt lat="43.03421" lon="1.11282">
        <ele>493</ele>
        <time>2022-03-08T14:38:47+01:00</time>
      </trkpt>
      <trkpt lat="43.03432" lon="1.11302">
        <ele>505</ele>
        <time>2022-03-08T14:39:06+01:00</time>
      </trkpt>
      <trkpt lat="43.0343" lon="1.11327">
        <ele>517</ele>
        <time>2022-03-08T14:39:27+01:00</time>
      </trkpt>
      <trkpt lat="43.0344" lon="1.11347">
        <ele>515</ele>
        <time>2022-03-08T14:39:45+01:00</time>
      </trkpt>
      <trkpt lat="43.03457" lon="1.11342">
        <ele>519</ele>
        <time>2022-03-08T14:40:08+01:00</time>
      </trkpt>
      <trkpt lat="43.03471" lon="1.11324">
        <ele>513</ele>
        <time>2022-03-08T14:40:28+01:00</time>
      </trkpt>
      <trkpt lat="43.03485" lon="1.11308">
        <ele>508</ele>
        <time>2022-03-08T14:40:48+01:00</time>
      </trkpt>
      <trkpt lat="43.03497" lon="1.11288">
        <ele>524</ele>
        <time>2022-03-08T14:41:09+01:00</time>
      </trkpt>
      <trkpt lat="43.03512" lon="1.11273">
        <ele>522</ele>
        <time>2022-03-08T14:41:30+01:00</time>
      </trkpt>
      <trkpt lat="43.0353" lon="1.11265">
        <ele>452</ele>
        <time>2022-03-08T14:41:49+01:00</time>
      </trkpt>
      <trkpt lat="43.03547" lon="1.11255">
        <ele>451</ele>
        <time>2022-03-08T14:42:09+01:00</time>
      </trkpt>
      <trkpt lat="43.03548" lon="1.1123">
        <ele>443</ele>
        <time>2022-03-08T14:42:26+01:00</time>
      </trkpt>
      <trkpt lat="43.03565" lon="1.11241">
        <ele>471</ele>
        <time>2022-03-08T14:43:14+01:00</time>
      </trkpt>
      <trkpt lat="43.03573" lon="1.11264">
        <ele>474</ele>
        <time>2022-03-08T14:43:33+01:00</time>
      </trkpt>
      <trkpt lat="43.03571" lon="1.11289">
        <ele>486</ele>
        <time>2022-03-08T14:43:52+01:00</time>
      </trkpt>
      <trkpt lat="43.03559" lon="1.11309">
        <ele>489</ele>
        <time>2022-03-08T14:44:16+01:00</time>
      </trkpt>
      <trkpt lat="43.03551" lon="1.11332">
        <ele>492</ele>
        <time>2022-03-08T14:44:36+01:00</time>
      </trkpt>
      <trkpt lat="43.03545" lon="1.11356">
        <ele>494</ele>
        <time>2022-03-08T14:44:58+01:00</time>
      </trkpt>
      <trkpt lat="43.0354" lon="1.1138">
        <ele>480</ele>
        <time>2022-03-08T14:45:19+01:00</time>
      </trkpt>
      <trkpt lat="43.03532" lon="1.11403">
        <ele>480</ele>
        <time>2022-03-08T14:45:42+01:00</time>
      </trkpt>
      <trkpt lat="43.03525" lon="1.11425">
        <ele>480</ele>
        <time>2022-03-08T14:46:02+01:00</time>
      </trkpt>
      <trkpt lat="43.0352" lon="1.11449">
        <ele>480</ele>
        <time>2022-03-08T14:46:24+01:00</time>
      </trkpt>
      <trkpt lat="43.03515" lon="1.11473">
        <ele>484</ele>
        <time>2022-03-08T14:46:45+01:00</time>
      </trkpt>
      <trkpt lat="43.03509" lon="1.11497">
        <ele>484</ele>
        <time>2022-03-08T14:47:09+01:00</time>
      </trkpt>
      <trkpt lat="43.03503" lon="1.11521">
        <ele>537</ele>
        <time>2022-03-08T14:47:32+01:00</time>
      </trkpt>
      <trkpt lat="43.03496" lon="1.11544">
        <ele>539</ele>
        <time>2022-03-08T14:47:52+01:00</time>
      </trkpt>
      <trkpt lat="43.03483" lon="1.11562">
        <ele>541</ele>
        <time>2022-03-08T14:48:13+01:00</time>
      </trkpt>
      <trkpt lat="43.03469" lon="1.11578">
        <ele>540</ele>
        <time>2022-03-08T14:48:31+01:00</time>
      </trkpt>
      <trkpt lat="43.03455" lon="1.11596">
        <ele>537</ele>
        <time>2022-03-08T14:48:54+01:00</time>
      </trkpt>
      <trkpt lat="43.03443" lon="1.11615">
        <ele>539</ele>
        <time>2022-03-08T14:49:13+01:00</time>
      </trkpt>
      <trkpt lat="43.03437" lon="1.11639">
        <ele>539</ele>
        <time>2022-03-08T14:49:38+01:00</time>
      </trkpt>
      <trkpt lat="43.0343" lon="1.11662">
        <ele>545</ele>
        <time>2022-03-08T14:50:01+01:00</time>
      </trkpt>
      <trkpt lat="43.03425" lon="1.11686">
        <ele>515</ele>
        <time>2022-03-08T14:50:21+01:00</time>
      </trkpt>
      <trkpt lat="43.03422" lon="1.11711">
        <ele>503</ele>
        <time>2022-03-08T14:50:40+01:00</time>
      </trkpt>
      <trkpt lat="43.03418" lon="1.11735">
        <ele>510</ele>
        <time>2022-03-08T14:50:59+01:00</time>
      </trkpt>
      <trkpt lat="43.03416" lon="1.11761">
        <ele>513</ele>
        <time>2022-03-08T14:51:19+01:00</time>
      </trkpt>
      <trkpt lat="43.03412" lon="1.11786">
        <ele>511</ele>
        <time>2022-03-08T14:51:40+01:00</time>
      </trkpt>
      <trkpt lat="43.03399" lon="1.11804">
        <ele>493</ele>
        <time>2022-03-08T14:53:35+01:00</time>
      </trkpt>
      <trkpt lat="43.03384" lon="1.11817">
        <ele>543</ele>
        <time>2022-03-08T14:53:54+01:00</time>
      </trkpt>
      <trkpt lat="43.03374" lon="1.11838">
        <ele>545</ele>
        <time>2022-03-08T14:54:14+01:00</time>
      </trkpt>
      <trkpt lat="43.03369" lon="1.11863">
        <ele>546</ele>
        <time>2022-03-08T14:54:33+01:00</time>
      </trkpt>
      <trkpt lat="43.03362" lon="1.11887">
        <ele>545</ele>
        <time>2022-03-08T14:54:52+01:00</time>
      </trkpt>
      <trkpt lat="43.03352" lon="1.11908">
        <ele>546</ele>
        <time>2022-03-08T14:55:08+01:00</time>
      </trkpt>
      <trkpt lat="43.03339" lon="1.11925">
        <ele>528</ele>
        <time>2022-03-08T14:55:25+01:00</time>
      </trkpt>
      <trkpt lat="43.03324" lon="1.11941">
        <ele>527</ele>
        <time>2022-03-08T14:55:41+01:00</time>
      </trkpt>
      <trkpt lat="43.03306" lon="1.11945">
        <ele>523</ele>
        <time>2022-03-08T14:55:55+01:00</time>
      </trkpt>
      <trkpt lat="43.03287" lon="1.11942">
        <ele>492</ele>
        <time>2022-03-08T14:56:15+01:00</time>
      </trkpt>
      <trkpt lat="43.03269" lon="1.11944">
        <ele>495</ele>
        <time>2022-03-08T14:56:33+01:00</time>
      </trkpt>
      <trkpt lat="43.03258" lon="1.11965">
        <ele>497</ele>
        <time>2022-03-08T14:56:56+01:00</time>
      </trkpt>
      <trkpt lat="43.03249" lon="1.11986">
        <ele>551</ele>
        <time>2022-03-08T14:57:15+01:00</time>
      </trkpt>
      <trkpt lat="43.03233" lon="1.11999">
        <ele>550</ele>
        <time>2022-03-08T14:57:32+01:00</time>
      </trkpt>
      <trkpt lat="43.03219" lon="1.12016">
        <ele>547</ele>
        <time>2022-03-08T14:57:51+01:00</time>
      </trkpt>
      <trkpt lat="43.03208" lon="1.12036">
        <ele>549</ele>
        <time>2022-03-08T14:58:12+01:00</time>
      </trkpt>
      <trkpt lat="43.03195" lon="1.12055">
        <ele>549</ele>
        <time>2022-03-08T14:58:33+01:00</time>
      </trkpt>
      <trkpt lat="43.03182" lon="1.12073">
        <ele>524</ele>
        <time>2022-03-08T14:58:57+01:00</time>
      </trkpt>
      <trkpt lat="43.03168" lon="1.1209">
        <ele>526</ele>
        <time>2022-03-08T14:59:21+01:00</time>
      </trkpt>
      <trkpt lat="43.03157" lon="1.12111">
        <ele>525</ele>
        <time>2022-03-08T14:59:41+01:00</time>
      </trkpt>
      <trkpt lat="43.03152" lon="1.12134">
        <ele>525</ele>
        <time>2022-03-08T15:00:02+01:00</time>
      </trkpt>
      <trkpt lat="43.03148" lon="1.12159">
        <ele>503</ele>
        <time>2022-03-08T15:00:23+01:00</time>
      </trkpt>
      <trkpt lat="43.03145" lon="1.12184">
        <ele>502</ele>
        <time>2022-03-08T15:00:45+01:00</time>
      </trkpt>
      <trkpt lat="43.03131" lon="1.12201">
        <ele>501</ele>
        <time>2022-03-08T15:01:16+01:00</time>
      </trkpt>
      <trkpt lat="43.03124" lon="1.12224">
        <ele>499</ele>
        <time>2022-03-08T15:01:36+01:00</time>
      </trkpt>
      <trkpt lat="43.03121" lon="1.12249">
        <ele>496</ele>
        <time>2022-03-08T15:01:58+01:00</time>
      </trkpt>
      <trkpt lat="43.03117" lon="1.12274">
        <ele>496</ele>
        <time>2022-03-08T15:02:19+01:00</time>
      </trkpt>
      <trkpt lat="43.03125" lon="1.12296">
        <ele>491</ele>
        <time>2022-03-08T15:03:31+01:00</time>
      </trkpt>
      <trkpt lat="43.03137" lon="1.12315">
        <ele>485</ele>
        <time>2022-03-08T15:03:58+01:00</time>
      </trkpt>
      <trkpt lat="43.03155" lon="1.12323">
        <ele>483</ele>
        <time>2022-03-08T15:04:21+01:00</time>
      </trkpt>
      <trkpt lat="43.03172" lon="1.1233">
        <ele>498</ele>
        <time>2022-03-08T15:04:39+01:00</time>
      </trkpt>
      <trkpt lat="43.0319" lon="1.12336">
        <ele>496</ele>
        <time>2022-03-08T15:04:58+01:00</time>
      </trkpt>
      <trkpt lat="43.03208" lon="1.12344">
        <ele>479</ele>
        <time>2022-03-08T15:05:18+01:00</time>
      </trkpt>
      <trkpt lat="43.03224" lon="1.12358">
        <ele>479</ele>
        <time>2022-03-08T15:05:40+01:00</time>
      </trkpt>
      <trkpt lat="43.03239" lon="1.12371">
        <ele>476</ele>
        <time>2022-03-08T15:06:07+01:00</time>
      </trkpt>
      <trkpt lat="43.03257" lon="1.12363">
        <ele>477</ele>
        <time>2022-03-08T15:06:44+01:00</time>
      </trkpt>
      <trkpt lat="43.03276" lon="1.12365">
        <ele>476</ele>
        <time>2022-03-08T15:07:01+01:00</time>
      </trkpt>
      <trkpt lat="43.03294" lon="1.12369">
        <ele>475</ele>
        <time>2022-03-08T15:07:17+01:00</time>
      </trkpt>
      <trkpt lat="43.03311" lon="1.12378">
        <ele>474</ele>
        <time>2022-03-08T15:07:34+01:00</time>
      </trkpt>
      <trkpt lat="43.03327" lon="1.12389">
        <ele>474</ele>
        <time>2022-03-08T15:07:50+01:00</time>
      </trkpt>
      <trkpt lat="43.03344" lon="1.124">
        <ele>474</ele>
        <time>2022-03-08T15:08:06+01:00</time>
      </trkpt>
      <trkpt lat="43.03361" lon="1.1241">
        <ele>474</ele>
        <time>2022-03-08T15:08:22+01:00</time>
      </trkpt>
      <trkpt lat="43.03378" lon="1.1242">
        <ele>474</ele>
        <time>2022-03-08T15:08:38+01:00</time>
      </trkpt>
      <trkpt lat="43.03395" lon="1.12429">
        <ele>473</ele>
        <time>2022-03-08T15:08:57+01:00</time>
      </trkpt>
      <trkpt lat="43.03393" lon="1.12454">
        <ele>472</ele>
        <time>2022-03-08T15:09:30+01:00</time>
      </trkpt>
      <trkpt lat="43.03381" lon="1.12473">
        <ele>474</ele>
        <time>2022-03-08T15:10:16+01:00</time>
      </trkpt>
      <trkpt lat="43.03373" lon="1.12497">
        <ele>472</ele>
        <time>2022-03-08T15:10:46+01:00</time>
      </trkpt>
      <trkpt lat="43.03358" lon="1.12511">
        <ele>471</ele>
        <time>2022-03-08T15:11:05+01:00</time>
      </trkpt>
      <trkpt lat="43.03339" lon="1.12518">
        <ele>469</ele>
        <time>2022-03-08T15:11:24+01:00</time>
      </trkpt>
      <trkpt lat="43.03323" lon="1.12527">
        <ele>470</ele>
        <time>2022-03-08T15:11:40+01:00</time>
      </trkpt>
      <trkpt lat="43.03304" lon="1.12524">
        <ele>483</ele>
        <time>2022-03-08T15:11:56+01:00</time>
      </trkpt>
      <trkpt lat="43.03286" lon="1.12527">
        <ele>483</ele>
        <time>2022-03-08T15:12:11+01:00</time>
      </trkpt>
      <trkpt lat="43.0327" lon="1.1254">
        <ele>483</ele>
        <time>2022-03-08T15:12:28+01:00</time>
      </trkpt>
      <trkpt lat="43.03266" lon="1.12564">
        <ele>469</ele>
        <time>2022-03-08T15:12:46+01:00</time>
      </trkpt>
      <trkpt lat="43.03258" lon="1.12587">
        <ele>469</ele>
        <time>2022-03-08T15:13:07+01:00</time>
      </trkpt>
      <trkpt lat="43.03251" lon="1.1261">
        <ele>468</ele>
        <time>2022-03-08T15:13:32+01:00</time>
      </trkpt>
      <trkpt lat="43.03247" lon="1.12635">
        <ele>467</ele>
        <time>2022-03-08T15:14:00+01:00</time>
      </trkpt>
      <trkpt lat="43.03235" lon="1.12654">
        <ele>468</ele>
        <time>2022-03-08T15:14:38+01:00</time>
      </trkpt>
      <trkpt lat="43.03222" lon="1.12671">
        <ele>471</ele>
        <time>2022-03-08T15:14:58+01:00</time>
      </trkpt>
      <trkpt lat="43.03208" lon="1.12686">
        <ele>469</ele>
        <time>2022-03-08T15:15:57+01:00</time>
      </trkpt>
      <trkpt lat="43.03193" lon="1.12702">
        <ele>469</ele>
        <time>2022-03-08T15:16:25+01:00</time>
      </trkpt>
      <trkpt lat="43.0318" lon="1.12719">
        <ele>468</ele>
        <time>2022-03-08T15:16:45+01:00</time>
      </trkpt>
      <trkpt lat="43.03171" lon="1.12741">
        <ele>469</ele>
        <time>2022-03-08T15:17:05+01:00</time>
      </trkpt>
      <trkpt lat="43.03169" lon="1.12766">
        <ele>469</ele>
        <time>2022-03-08T15:17:23+01:00</time>
      </trkpt>
      <trkpt lat="43.03159" lon="1.12788">
        <ele>468</ele>
        <time>2022-03-08T15:17:42+01:00</time>
      </trkpt>
      <trkpt lat="43.03142" lon="1.12798">
        <ele>467</ele>
        <time>2022-03-08T15:18:00+01:00</time>
      </trkpt>
      <trkpt lat="43.03126" lon="1.1281">
        <ele>466</ele>
        <time>2022-03-08T15:18:15+01:00</time>
      </trkpt>
      <trkpt lat="43.0311" lon="1.12823">
        <ele>466</ele>
        <time>2022-03-08T15:18:33+01:00</time>
      </trkpt>
      <trkpt lat="43.03094" lon="1.12837">
        <ele>465</ele>
        <time>2022-03-08T15:18:51+01:00</time>
      </trkpt>
      <trkpt lat="43.03079" lon="1.1285">
        <ele>465</ele>
        <time>2022-03-08T15:19:09+01:00</time>
      </trkpt>
      <trkpt lat="43.0306" lon="1.12857">
        <ele>464</ele>
        <time>2022-03-08T15:19:26+01:00</time>
      </trkpt>
      <trkpt lat="43.03042" lon="1.12862">
        <ele>464</ele>
        <time>2022-03-08T15:19:42+01:00</time>
      </trkpt>
      <trkpt lat="43.03025" lon="1.12853">
        <ele>462</ele>
        <time>2022-03-08T15:19:58+01:00</time>
      </trkpt>
      <trkpt lat="43.03017" lon="1.1283">
        <ele>462</ele>
        <time>2022-03-08T15:20:16+01:00</time>
      </trkpt>
      <trkpt lat="43.02999" lon="1.12827">
        <ele>458</ele>
        <time>2022-03-08T15:20:54+01:00</time>
      </trkpt>
      <trkpt lat="43.02983" lon="1.12841">
        <ele>456</ele>
        <time>2022-03-08T15:21:15+01:00</time>
      </trkpt>
      <trkpt lat="43.02967" lon="1.12852">
        <ele>456</ele>
        <time>2022-03-08T15:21:57+01:00</time>
      </trkpt>
      <trkpt lat="43.02953" lon="1.12869">
        <ele>455</ele>
        <time>2022-03-08T15:22:16+01:00</time>
      </trkpt>
      <trkpt lat="43.02939" lon="1.12885">
        <ele>453</ele>
        <time>2022-03-08T15:22:40+01:00</time>
      </trkpt>
      <trkpt lat="43.02922" lon="1.12891">
        <ele>449</ele>
        <time>2022-03-08T15:23:05+01:00</time>
      </trkpt>
      <trkpt lat="43.02912" lon="1.12871">
        <ele>441</ele>
        <time>2022-03-08T15:23:21+01:00</time>
      </trkpt>
      <trkpt lat="43.02905" lon="1.12847">
        <ele>446</ele>
        <time>2022-03-08T15:23:38+01:00</time>
      </trkpt>
      <trkpt lat="43.029" lon="1.12823">
        <ele>443</ele>
        <time>2022-03-08T15:23:56+01:00</time>
      </trkpt>
      <trkpt lat="43.02882" lon="1.12819">
        <ele>441</ele>
        <time>2022-03-08T15:24:22+01:00</time>
      </trkpt>
      <trkpt lat="43.02871" lon="1.12839">
        <ele>439</ele>
        <time>2022-03-08T15:24:39+01:00</time>
      </trkpt>
      <trkpt lat="43.02853" lon="1.12836">
        <ele>441</ele>
        <time>2022-03-08T15:24:56+01:00</time>
      </trkpt>
      <trkpt lat="43.02841" lon="1.12817">
        <ele>438</ele>
        <time>2022-03-08T15:25:13+01:00</time>
      </trkpt>
      <trkpt lat="43.02828" lon="1.12798">
        <ele>437</ele>
        <time>2022-03-08T15:25:29+01:00</time>
      </trkpt>
      <trkpt lat="43.02817" lon="1.12779">
        <ele>435</ele>
        <time>2022-03-08T15:25:46+01:00</time>
      </trkpt>
      <trkpt lat="43.02801" lon="1.12764">
        <ele>437</ele>
        <time>2022-03-08T15:26:02+01:00</time>
      </trkpt>
      <trkpt lat="43.02783" lon="1.12758">
        <ele>435</ele>
        <time>2022-03-08T15:26:18+01:00</time>
      </trkpt>
      <trkpt lat="43.02766" lon="1.1275">
        <ele>435</ele>
        <time>2022-03-08T15:26:34+01:00</time>
      </trkpt>
      <trkpt lat="43.02749" lon="1.12744">
        <ele>434</ele>
        <time>2022-03-08T15:26:51+01:00</time>
      </trkpt>
      <trkpt lat="43.02731" lon="1.12737">
        <ele>434</ele>
        <time>2022-03-08T15:27:08+01:00</time>
      </trkpt>
      <trkpt lat="43.02713" lon="1.12729">
        <ele>431</ele>
        <time>2022-03-08T15:27:24+01:00</time>
      </trkpt>
      <trkpt lat="43.02698" lon="1.12713">
        <ele>431</ele>
        <time>2022-03-08T15:27:41+01:00</time>
      </trkpt>
      <trkpt lat="43.02686" lon="1.12695">
        <ele>429</ele>
        <time>2022-03-08T15:27:58+01:00</time>
      </trkpt>
      <trkpt lat="43.02675" lon="1.12675">
        <ele>429</ele>
        <time>2022-03-08T15:28:15+01:00</time>
      </trkpt>
      <trkpt lat="43.02657" lon="1.12669">
        <ele>426</ele>
        <time>2022-03-08T15:28:32+01:00</time>
      </trkpt>
      <trkpt lat="43.02638" lon="1.12672">
        <ele>424</ele>
        <time>2022-03-08T15:28:49+01:00</time>
      </trkpt>
      <trkpt lat="43.0262" lon="1.12666">
        <ele>423</ele>
        <time>2022-03-08T15:29:04+01:00</time>
      </trkpt>
      <trkpt lat="43.02602" lon="1.12656">
        <ele>422</ele>
        <time>2022-03-08T15:29:19+01:00</time>
      </trkpt>
      <trkpt lat="43.02584" lon="1.12648">
        <ele>423</ele>
        <time>2022-03-08T15:29:36+01:00</time>
      </trkpt>
      <trkpt lat="43.02566" lon="1.12652">
        <ele>425</ele>
        <time>2022-03-08T15:29:53+01:00</time>
      </trkpt>
      <trkpt lat="43.0255" lon="1.12663">
        <ele>425</ele>
        <time>2022-03-08T15:30:08+01:00</time>
      </trkpt>
      <trkpt lat="43.02532" lon="1.12672">
        <ele>423</ele>
        <time>2022-03-08T15:30:24+01:00</time>
      </trkpt>
      <trkpt lat="43.02514" lon="1.12667">
        <ele>422</ele>
        <time>2022-03-08T15:30:40+01:00</time>
      </trkpt>
      <trkpt lat="43.02497" lon="1.12658">
        <ele>422</ele>
        <time>2022-03-08T15:30:56+01:00</time>
      </trkpt>
      <trkpt lat="43.0248" lon="1.1265">
        <ele>421</ele>
        <time>2022-03-08T15:31:11+01:00</time>
      </trkpt>
      <trkpt lat="43.02463" lon="1.1264">
        <ele>420</ele>
        <time>2022-03-08T15:31:28+01:00</time>
      </trkpt>
      <trkpt lat="43.02444" lon="1.12634">
        <ele>418</ele>
        <time>2022-03-08T15:31:42+01:00</time>
      </trkpt>
      <trkpt lat="43.02429" lon="1.12618">
        <ele>419</ele>
        <time>2022-03-08T15:31:58+01:00</time>
      </trkpt>
      <trkpt lat="43.02421" lon="1.12596">
        <ele>423</ele>
        <time>2022-03-08T15:32:12+01:00</time>
      </trkpt>
      <trkpt lat="43.02411" lon="1.12574">
        <ele>421</ele>
        <time>2022-03-08T15:32:29+01:00</time>
      </trkpt>
      <trkpt lat="43.02399" lon="1.12555">
        <ele>420</ele>
        <time>2022-03-08T15:32:47+01:00</time>
      </trkpt>
      <trkpt lat="43.02388" lon="1.12534">
        <ele>420</ele>
        <time>2022-03-08T15:33:02+01:00</time>
      </trkpt>
      <trkpt lat="43.02376" lon="1.12514">
        <ele>420</ele>
        <time>2022-03-08T15:33:17+01:00</time>
      </trkpt>
      <trkpt lat="43.0236" lon="1.125">
        <ele>417</ele>
        <time>2022-03-08T15:33:33+01:00</time>
      </trkpt>
      <trkpt lat="43.02342" lon="1.12492">
        <ele>417</ele>
        <time>2022-03-08T15:33:48+01:00</time>
      </trkpt>
      <trkpt lat="43.02324" lon="1.12482">
        <ele>417</ele>
        <time>2022-03-08T15:34:03+01:00</time>
      </trkpt>
      <trkpt lat="43.02306" lon="1.12473">
        <ele>417</ele>
        <time>2022-03-08T15:34:19+01:00</time>
      </trkpt>
      <trkpt lat="43.02291" lon="1.1246">
        <ele>416</ele>
        <time>2022-03-08T15:34:33+01:00</time>
      </trkpt>
      <trkpt lat="43.02273" lon="1.12452">
        <ele>416</ele>
        <time>2022-03-08T15:34:49+01:00</time>
      </trkpt>
      <trkpt lat="43.02256" lon="1.12443">
        <ele>417</ele>
        <time>2022-03-08T15:35:05+01:00</time>
      </trkpt>
      <trkpt lat="43.0224" lon="1.12431">
        <ele>416</ele>
        <time>2022-03-08T15:35:21+01:00</time>
      </trkpt>
      <trkpt lat="43.02224" lon="1.12419">
        <ele>419</ele>
        <time>2022-03-08T15:35:38+01:00</time>
      </trkpt>
      <trkpt lat="43.02209" lon="1.12403">
        <ele>418</ele>
        <time>2022-03-08T15:35:55+01:00</time>
      </trkpt>
      <trkpt lat="43.02208" lon="1.12377">
        <ele>421</ele>
        <time>2022-03-08T15:36:11+01:00</time>
      </trkpt>
      <trkpt lat="43.02207" lon="1.12353">
        <ele>421</ele>
        <time>2022-03-08T15:36:27+01:00</time>
      </trkpt>
      <trkpt lat="43.02212" lon="1.12329">
        <ele>420</ele>
        <time>2022-03-08T15:36:44+01:00</time>
      </trkpt>
      <trkpt lat="43.02219" lon="1.12305">
        <ele>417</ele>
        <time>2022-03-08T15:37:03+01:00</time>
      </trkpt>
      <trkpt lat="43.02227" lon="1.12281">
        <ele>418</ele>
        <time>2022-03-08T15:37:19+01:00</time>
      </trkpt>
      <trkpt lat="43.02237" lon="1.1226">
        <ele>418</ele>
        <time>2022-03-08T15:37:35+01:00</time>
      </trkpt>
      <trkpt lat="43.02247" lon="1.12239">
        <ele>418</ele>
        <time>2022-03-08T15:37:52+01:00</time>
      </trkpt>
      <trkpt lat="43.02258" lon="1.12217">
        <ele>418</ele>
        <time>2022-03-08T15:38:10+01:00</time>
      </trkpt>
      <trkpt lat="43.02266" lon="1.12194">
        <ele>419</ele>
        <time>2022-03-08T15:38:24+01:00</time>
      </trkpt>
      <trkpt lat="43.02276" lon="1.12172">
        <ele>419</ele>
        <time>2022-03-08T15:38:39+01:00</time>
      </trkpt>
      <trkpt lat="43.02286" lon="1.12151">
        <ele>420</ele>
        <time>2022-03-08T15:38:57+01:00</time>
      </trkpt>
      <trkpt lat="43.02295" lon="1.12129">
        <ele>419</ele>
        <time>2022-03-08T15:39:12+01:00</time>
      </trkpt>
      <trkpt lat="43.02305" lon="1.12107">
        <ele>420</ele>
        <time>2022-03-08T15:39:28+01:00</time>
      </trkpt>
      <trkpt lat="43.02314" lon="1.12086">
        <ele>419</ele>
        <time>2022-03-08T15:39:43+01:00</time>
      </trkpt>
      <trkpt lat="43.02323" lon="1.12064">
        <ele>419</ele>
        <time>2022-03-08T15:39:59+01:00</time>
      </trkpt>
      <trkpt lat="43.02331" lon="1.12041">
        <ele>417</ele>
        <time>2022-03-08T15:40:15+01:00</time>
      </trkpt>
      <trkpt lat="43.02339" lon="1.12018">
        <ele>419</ele>
        <time>2022-03-08T15:40:31+01:00</time>
      </trkpt>
      <trkpt lat="43.02346" lon="1.11994">
        <ele>418</ele>
        <time>2022-03-08T15:40:48+01:00</time>
      </trkpt>
      <trkpt lat="43.02351" lon="1.11971">
        <ele>417</ele>
        <time>2022-03-08T15:41:04+01:00</time>
      </trkpt>
      <trkpt lat="43.02359" lon="1.11948">
        <ele>417</ele>
        <time>2022-03-08T15:41:20+01:00</time>
      </trkpt>
      <trkpt lat="43.02363" lon="1.11923">
        <ele>419</ele>
        <time>2022-03-08T15:41:34+01:00</time>
      </trkpt>
      <trkpt lat="43.02369" lon="1.11899">
        <ele>418</ele>
        <time>2022-03-08T15:41:51+01:00</time>
      </trkpt>
      <trkpt lat="43.02375" lon="1.11876">
        <ele>418</ele>
        <time>2022-03-08T15:42:06+01:00</time>
      </trkpt>
      <trkpt lat="43.02383" lon="1.11853">
        <ele>418</ele>
        <time>2022-03-08T15:42:21+01:00</time>
      </trkpt>
      <trkpt lat="43.02393" lon="1.11832">
        <ele>419</ele>
        <time>2022-03-08T15:42:36+01:00</time>
      </trkpt>
      <trkpt lat="43.02407" lon="1.11816">
        <ele>419</ele>
        <time>2022-03-08T15:42:53+01:00</time>
      </trkpt>
      <trkpt lat="43.02421" lon="1.11798">
        <ele>417</ele>
        <time>2022-03-08T15:43:12+01:00</time>
      </trkpt>
      <trkpt lat="43.02434" lon="1.11781">
        <ele>417</ele>
        <time>2022-03-08T15:43:29+01:00</time>
      </trkpt>
      <trkpt lat="43.02449" lon="1.11764">
        <ele>419</ele>
        <time>2022-03-08T15:43:45+01:00</time>
      </trkpt>
      <trkpt lat="43.02464" lon="1.11752">
        <ele>417</ele>
        <time>2022-03-08T15:44:02+01:00</time>
      </trkpt>
      <trkpt lat="43.02479" lon="1.11736">
        <ele>417</ele>
        <time>2022-03-08T15:44:18+01:00</time>
      </trkpt>
      <trkpt lat="43.0247" lon="1.11713">
        <ele>417</ele>
        <time>2022-03-08T15:44:37+01:00</time>
      </trkpt>
      <trkpt lat="43.02454" lon="1.11701">
        <ele>417</ele>
        <time>2022-03-08T15:44:55+01:00</time>
      </trkpt>
      <trkpt lat="43.02448" lon="1.11677">
        <ele>417</ele>
        <time>2022-03-08T15:45:12+01:00</time>
      </trkpt>
      <trkpt lat="43.02443" lon="1.11652">
        <ele>415</ele>
        <time>2022-03-08T15:45:29+01:00</time>
      </trkpt>
      <trkpt lat="43.0244" lon="1.11627">
        <ele>416</ele>
        <time>2022-03-08T15:45:46+01:00</time>
      </trkpt>
      <trkpt lat="43.02426" lon="1.1161">
        <ele>415</ele>
        <time>2022-03-08T15:46:03+01:00</time>
      </trkpt>
      <trkpt lat="43.02408" lon="1.11605">
        <ele>416</ele>
        <time>2022-03-08T15:46:20+01:00</time>
      </trkpt>
      <trkpt lat="43.02389" lon="1.11598">
        <ele>415</ele>
        <time>2022-03-08T15:46:37+01:00</time>
      </trkpt>
      <trkpt lat="43.02379" lon="1.11577">
        <ele>414</ele>
        <time>2022-03-08T15:46:52+01:00</time>
      </trkpt>
      <trkpt lat="43.02386" lon="1.11554">
        <ele>417</ele>
        <time>2022-03-08T15:47:09+01:00</time>
      </trkpt>
      <trkpt lat="43.02403" lon="1.11545">
        <ele>415</ele>
        <time>2022-03-08T15:47:26+01:00</time>
      </trkpt>
      <trkpt lat="43.02416" lon="1.11526">
        <ele>417</ele>
        <time>2022-03-08T15:47:46+01:00</time>
      </trkpt>
      <trkpt lat="43.02433" lon="1.11517">
        <ele>415</ele>
        <time>2022-03-08T15:48:02+01:00</time>
      </trkpt>
      <trkpt lat="43.02449" lon="1.11506">
        <ele>422</ele>
        <time>2022-03-08T15:48:19+01:00</time>
      </trkpt>
      <trkpt lat="43.02467" lon="1.11501">
        <ele>417</ele>
        <time>2022-03-08T15:48:39+01:00</time>
      </trkpt>
      <trkpt lat="43.02484" lon="1.11489">
        <ele>414</ele>
        <time>2022-03-08T15:48:49+01:00</time>
      </trkpt>
      <trkpt lat="43.02498" lon="1.11474">
        <ele>412</ele>
        <time>2022-03-08T15:49:09+01:00</time>
      </trkpt>
      <trkpt lat="43.02514" lon="1.11462">
        <ele>411</ele>
        <time>2022-03-08T15:49:26+01:00</time>
      </trkpt>
      <trkpt lat="43.0253" lon="1.11447">
        <ele>411</ele>
        <time>2022-03-08T15:49:37+01:00</time>
      </trkpt>
      <trkpt lat="43.02547" lon="1.11438">
        <ele>411</ele>
        <time>2022-03-08T15:49:50+01:00</time>
      </trkpt>
      <trkpt lat="43.0256" lon="1.11419">
        <ele>413</ele>
        <time>2022-03-08T15:50:05+01:00</time>
      </trkpt>
      <trkpt lat="43.02576" lon="1.11404">
        <ele>413</ele>
        <time>2022-03-08T15:50:21+01:00</time>
      </trkpt>
      <trkpt lat="43.02592" lon="1.11393">
        <ele>412</ele>
        <time>2022-03-08T15:50:44+01:00</time>
      </trkpt>
      <trkpt lat="43.0261" lon="1.11385">
        <ele>412</ele>
        <time>2022-03-08T15:51:01+01:00</time>
      </trkpt>
      <trkpt lat="43.02627" lon="1.11378">
        <ele>413</ele>
        <time>2022-03-08T15:51:16+01:00</time>
      </trkpt>
      <trkpt lat="43.02645" lon="1.1137">
        <ele>413</ele>
        <time>2022-03-08T15:51:33+01:00</time>
      </trkpt>
      <trkpt lat="43.02661" lon="1.11359">
        <ele>410</ele>
        <time>2022-03-08T15:51:50+01:00</time>
      </trkpt>
      <trkpt lat="43.0268" lon="1.11365">
        <ele>411</ele>
        <time>2022-03-08T15:52:10+01:00</time>
      </trkpt>
    </trkseg>
  </trk>
</gpx>